Time;durP1;ratioP1;P1;durP2;ratioP2;P2;SDS_P1;SDS_P2;PMS_P1;PMS_P2;Temp;Humidity;BMP_temperature;BMP_pressure;BME280_temperature;BME280_humidity;BME280_pressure;Samples;Min_cycle;Max_cycle;Signal;HPM_P1;HPM_P2
2023/01/11 00:01:58;;;;;;;29.50;17.20;;;5.50;99.90;;;;;;10072926;29;20318;-87
2023/01/11 00:07:00;;;;;;;25.43;16.17;;;5.40;99.90;;;;;;10071250;29;20293;-86
2023/01/11 00:12:03;;;;;;;24.53;14.57;;;5.20;99.90;;;;;;10072075;29;20237;-87
2023/01/11 00:17:06;;;;;;;25.33;15.83;;;5.60;99.90;;;;;;10048696;29;20294;-86
2023/01/11 00:22:08;;;;;;;65.20;32.30;;;5.60;99.90;;;;;;10055614;29;20265;-86
2023/01/11 00:27:11;;;;;;;67.93;31.23;;;5.70;99.90;;;;;;10050247;29;20262;-87
2023/01/11 00:32:14;;;;;;;40.03;22.03;;;6.00;99.90;;;;;;10057440;29;20232;-87
2023/01/11 00:37:16;;;;;;;26.07;15.97;;;6.00;99.90;;;;;;10067878;29;20268;-87
2023/01/11 00:53:01;;;;;;;26.57;14.40;;;6.20;99.90;;;;;;10071344;29;21026;-87
2023/01/11 00:58:05;;;;;;;26.63;15.60;;;6.30;99.90;;;;;;10072081;29;20750;-87
2023/01/11 01:03:08;;;;;;;24.63;15.57;;;6.20;99.90;;;;;;10044168;29;20297;-87
2023/01/11 01:08:11;;;;;;;24.67;14.17;;;6.40;99.90;;;;;;10075556;29;20675;-87
2023/01/11 01:18:44;;;;;;;18.90;12.10;;;6.30;99.90;;;;;;10077766;29;20241;-87
2023/01/11 01:23:47;;;;;;;19.53;11.40;;;6.20;99.90;;;;;;10057550;29;20313;-88
2023/01/11 01:28:49;;;;;;;23.77;12.37;;;6.10;99.90;;;;;;10069141;29;20285;-87
2023/01/11 01:33:57;;;;;;;20.10;12.20;;;5.80;99.90;;;;;;10069941;29;20321;-87
2023/01/11 01:39:01;;;;;;;19.97;13.93;;;5.80;99.90;;;;;;10068029;29;20237;-87
2023/01/11 01:44:42;;;;;;;29.50;14.37;;;5.60;99.90;;;;;;10070041;29;20291;-87
2023/01/11 01:49:45;;;;;;;25.70;13.43;;;5.40;99.90;;;;;;10049034;29;20670;-86
2023/01/11 01:54:48;;;;;;;22.90;13.33;;;5.30;99.90;;;;;;10070100;29;20278;-87
2023/01/11 01:59:54;;;;;;;26.07;16.37;;;5.20;99.90;;;;;;10055586;29;20252;-87
2023/01/11 02:04:57;;;;;;;29.57;18.90;;;5.10;99.90;;;;;;10053311;29;20665;-87
2023/01/11 02:10:11;;;;;;;30.37;18.23;;;4.90;99.90;;;;;;10072497;29;20278;-87
2023/01/11 02:15:15;;;;;;;26.40;15.90;;;4.80;99.90;;;;;;10036940;29;20245;-87
2023/01/11 02:20:54;;;;;;;25.23;15.97;;;4.80;99.90;;;;;;10053049;29;20237;-87
2023/01/11 02:26:15;;;;;;;19.57;13.50;;;4.50;99.90;;;;;;10052789;29;20309;-87
2023/01/11 02:31:29;;;;;;;20.27;12.73;;;4.60;99.90;;;;;;10052623;29;20244;-87
2023/01/11 02:36:53;;;;;;;20.70;12.07;;;4.40;99.90;;;;;;10051792;29;20325;-87
2023/01/11 02:47:48;;;;;;;23.40;12.77;;;4.60;99.90;;;;;;10029941;29;20904;-87
2023/01/11 02:53:26;;;;;;;20.03;11.47;;;4.60;99.90;;;;;;10051968;29;20297;-87
2023/01/11 02:58:33;;;;;;;19.30;11.53;;;4.60;99.90;;;;;;10050830;29;20285;-87
2023/01/11 03:03:35;;;;;;;21.13;11.57;;;4.40;99.90;;;;;;10033948;29;20744;-87
2023/01/11 03:08:47;;;;;;;17.87;11.33;;;4.40;99.90;;;;;;10034899;29;20226;-87
2023/01/11 03:14:10;;;;;;;15.43;10.23;;;4.20;99.90;;;;;;10050842;29;20772;-87
2023/01/11 03:19:26;;;;;;;17.17;11.33;;;4.50;99.90;;;;;;10050537;29;20252;-87
2023/01/11 03:24:32;;;;;;;17.47;11.43;;;4.50;99.90;;;;;;10050551;29;20264;-87
2023/01/11 03:30:04;;;;;;;18.37;10.70;;;4.50;99.90;;;;;;10051087;29;20278;-87
2023/01/11 03:35:24;;;;;;;16.47;12.20;;;4.60;99.90;;;;;;10050168;29;20326;-87
2023/01/11 03:40:36;;;;;;;21.70;13.47;;;4.30;99.90;;;;;;10050936;29;20244;-88
2023/01/11 03:45:51;;;;;;;19.53;12.13;;;4.90;99.90;;;;;;10046163;29;20328;-87
2023/01/11 03:50:55;;;;;;;20.50;12.67;;;4.50;99.90;;;;;;10050130;29;20261;-87
2023/01/11 03:56:00;;;;;;;22.43;15.30;;;4.30;99.90;;;;;;10034351;29;20309;-87
2023/01/11 04:01:03;;;;;;;22.97;13.00;;;4.10;99.90;;;;;;10033184;29;20321;-87
2023/01/11 04:06:08;;;;;;;21.67;13.40;;;4.00;99.90;;;;;;10050427;29;21000;-87
2023/01/11 04:11:10;;;;;;;16.40;11.50;;;4.10;99.90;;;;;;10049344;29;20229;-87
2023/01/11 04:16:13;;;;;;;20.00;11.97;;;4.00;99.90;;;;;;10049723;29;20277;-87
2023/01/11 04:21:15;;;;;;;17.43;12.30;;;3.80;99.90;;;;;;10050080;29;20270;-87
2023/01/11 04:26:18;;;;;;;16.60;10.37;;;4.10;99.90;;;;;;10033961;29;20708;-87
2023/01/11 04:31:21;;;;;;;20.67;11.03;;;4.00;99.90;;;;;;10033101;29;20637;-87
2023/01/11 04:36:24;;;;;;;21.40;11.97;;;4.30;99.90;;;;;;10054715;29;20233;-87
2023/01/11 04:46:48;;;;;;;18.40;11.23;;;4.70;99.90;;;;;;10055594;29;20709;-87
2023/01/11 04:51:51;;;;;;;16.97;10.93;;;4.60;99.90;;;;;;10055793;29;20918;-87
2023/01/11 04:56:53;;;;;;;14.60;11.10;;;4.40;99.90;;;;;;10055698;29;20249;-88
2023/01/11 05:01:56;;;;;;;24.97;14.47;;;4.30;99.90;;;;;;10055081;29;20739;-87
2023/01/11 05:06:58;;;;;;;13.60;10.00;;;3.90;99.90;;;;;;10055222;29;20297;-87
2023/01/11 05:12:01;;;;;;;12.40;9.20;;;4.10;99.90;;;;;;10054351;29;20249;-87
2023/01/11 05:17:04;;;;;;;14.87;10.07;;;4.30;99.90;;;;;;10055038;29;20305;-87
2023/01/11 05:22:07;;;;;;;13.30;8.40;;;4.40;99.90;;;;;;10038045;29;20237;-87
2023/01/11 05:27:09;;;;;;;11.13;8.07;;;4.30;99.90;;;;;;10054775;29;20288;-88
2023/01/11 05:32:12;;;;;;;9.97;7.67;;;4.50;99.90;;;;;;10053765;29;20237;-87
2023/01/11 05:37:14;;;;;;;10.40;7.97;;;4.30;99.90;;;;;;10052840;29;20242;-87
2023/01/11 05:42:17;;;;;;;12.03;7.70;;;4.30;99.90;;;;;;10053267;29;20677;-87
2023/01/11 05:47:19;;;;;;;11.53;8.17;;;4.40;99.90;;;;;;10053196;29;20257;-87
2023/01/11 05:52:22;;;;;;;13.07;8.37;;;4.40;99.90;;;;;;10036733;29;20250;-87
2023/01/11 05:57:24;;;;;;;11.10;7.73;;;5.60;99.90;;;;;;10053061;29;20229;-87
2023/01/11 06:02:27;;;;;;;11.03;7.83;;;5.00;99.90;;;;;;10053066;29;20305;-87
2023/01/11 06:07:29;;;;;;;12.43;7.23;;;4.90;99.90;;;;;;10050987;29;20718;-88
2023/01/11 06:12:32;;;;;;;13.67;8.30;;;4.90;99.90;;;;;;10051105;29;20234;-91
2023/01/11 06:17:35;;;;;;;10.83;8.13;;;4.70;99.90;;;;;;10051876;29;20627;-87
2023/01/11 06:22:37;;;;;;;13.30;7.90;;;4.60;99.90;;;;;;10052594;29;20266;-87
2023/01/11 06:27:40;;;;;;;16.03;9.13;;;4.60;99.90;;;;;;10051307;29;20269;-87
2023/01/11 06:32:42;;;;;;;13.77;9.97;;;4.70;99.90;;;;;;10051533;29;20253;-86
2023/01/11 06:37:45;;;;;;;20.67;12.43;;;;;;;;;;10050509;29;20245;-88
2023/01/11 06:42:48;;;;;;;13.97;9.13;;;;;;;;;;10036342;29;20233;-91
2023/01/11 06:47:50;;;;;;;12.23;8.17;;;4.30;99.90;;;;;;10040764;29;20304;-91
2023/01/11 06:53:20;;;;;;;13.87;9.20;;;5.40;99.90;;;;;;10075886;29;20310;-90
2023/01/11 06:58:24;;;;;;;13.53;9.20;;;5.80;99.90;;;;;;10057468;29;20233;-90
2023/01/11 07:03:28;;;;;;;11.87;8.87;;;;;;;;;;10047237;29;20303;-91
2023/01/11 07:08:30;;;;;;;13.33;8.83;;;5.30;99.90;;;;;;10067834;29;20779;-91
2023/01/11 07:13:34;;;;;;;14.20;9.53;;;4.80;99.90;;;;;;10063037;29;20237;-90
2023/01/11 07:18:36;;;;;;;15.07;10.57;;;4.80;99.90;;;;;;10033137;29;20707;-90
2023/01/11 07:23:39;;;;;;;14.80;9.73;;;5.30;99.90;;;;;;10033541;29;20261;-89
2023/01/11 07:28:42;;;;;;;17.00;9.03;;;5.40;99.90;;;;;;10052193;29;20245;-90
2023/01/11 07:33:45;;;;;;;16.00;9.13;;;5.30;99.90;;;;;;10035094;29;20218;-90
2023/01/11 07:38:48;;;;;;;10.20;7.20;;;5.30;99.90;;;;;;10051304;29;20233;-90
2023/01/11 07:43:50;;;;;;;17.60;9.50;;;5.60;99.90;;;;;;10035608;29;20264;-90
2023/01/11 07:48:53;;;;;;;15.60;9.57;;;5.60;99.90;;;;;;10034747;29;20293;-89
2023/01/11 07:53:56;;;;;;;9.27;6.83;;;5.60;99.90;;;;;;10052696;29;20241;-89
2023/01/11 07:58:58;;;;;;;14.00;8.63;;;6.20;99.90;;;;;;10034797;29;20233;-90
2023/01/11 08:04:01;;;;;;;11.17;7.10;;;6.90;99.90;;;;;;10048610;29;20281;-89
2023/01/11 08:09:04;;;;;;;7.57;4.23;;;7.50;99.90;;;;;;10046691;29;20297;-90
2023/01/11 08:19:30;;;;;;;10.63;5.00;;;7.80;99.90;;;;;;10056208;29;20278;-90
2023/01/11 08:24:36;;;;;;;7.90;5.87;;;8.10;99.90;;;;;;10030412;29;20290;-91
2023/01/11 08:29:39;;;;;;;11.43;7.63;;;7.90;99.90;;;;;;10053466;29;20245;-91
2023/01/11 08:34:42;;;;;;;11.03;7.50;;;7.50;99.90;;;;;;10056727;29;20264;-91
2023/01/11 08:39:44;;;;;;;13.47;7.83;;;7.10;99.90;;;;;;10057424;29;20225;-91
2023/01/11 08:44:48;;;;;;;10.37;6.83;;;6.70;99.90;;;;;;10038886;29;20316;-90
2023/01/11 08:49:51;;;;;;;10.57;7.13;;;6.50;99.90;;;;;;10052778;29;20241;-90
2023/01/11 08:54:53;;;;;;;11.93;6.87;;;6.60;99.90;;;;;;10012208;29;20296;-91
2023/01/11 08:59:56;;;;;;;11.90;6.93;;;6.40;99.90;;;;;;10038296;29;20269;-90
2023/01/11 09:04:58;;;;;;;15.47;9.33;;;6.40;99.90;;;;;;10008728;29;20270;-91
2023/01/11 09:10:01;;;;;;;9.10;6.70;;;6.40;99.90;;;;;;10040314;29;20225;-91
2023/01/11 09:15:04;;;;;;;9.67;6.00;;;6.50;99.90;;;;;;10055152;29;20249;-89
2023/01/11 09:20:08;;;;;;;10.33;8.03;;;6.60;99.90;;;;;;10055148;29;20245;-89
2023/01/11 09:25:10;;;;;;;8.20;5.73;;;6.70;99.90;;;;;;10037636;29;20261;-91
2023/01/11 09:30:17;;;;;;;11.93;6.90;;;6.60;99.90;;;;;;10038738;29;20700;-91
2023/01/11 09:35:21;;;;;;;14.70;6.93;;;6.40;99.90;;;;;;10055073;29;20248;-90
2023/01/11 09:40:45;;;;;;;7.03;4.73;;;6.50;99.90;;;;;;10053288;29;20257;-89
2023/01/11 09:45:51;;;;;;;9.20;4.93;;;6.60;99.90;;;;;;10053016;29;20269;-90
2023/01/11 09:50:54;;;;;;;10.70;6.50;;;7.10;99.90;;;;;;10038101;29;20248;-90
2023/01/11 09:56:00;;;;;;;8.70;5.27;;;7.00;99.90;;;;;;10054010;29;20297;-90
2023/01/11 10:01:11;;;;;;;7.37;5.50;;;6.90;99.90;;;;;;10050698;29;20328;-91
2023/01/11 10:06:19;;;;;;;7.83;4.50;;;7.40;99.90;;;;;;10051828;29;20264;-91
2023/01/11 10:11:48;;;;;;;9.30;4.60;;;7.20;99.90;;;;;;10013796;29;20290;-91
2023/01/11 10:17:40;;;;;;;8.07;5.77;;;7.10;99.90;;;;;;9998588;29;20841;-90
2023/01/11 10:23:31;;;;;;;10.20;5.90;;;7.30;99.90;;;;;;10038606;29;20237;-90
2023/01/11 10:28:44;;;;;;;9.00;6.00;;;7.40;99.90;;;;;;10049605;29;20277;-91
2023/01/11 10:39:14;;;;;;;11.80;5.57;;;6.20;99.90;;;;;;10042905;29;20250;-90
2023/01/11 10:44:31;;;;;;;12.13;5.50;;;5.60;99.90;;;;;;10003898;29;20265;-90
2023/01/11 10:50:01;;;;;;;9.10;4.63;;;5.70;99.90;;;;;;10029753;29;20707;-90
2023/01/11 10:55:13;;;;;;;8.57;4.57;;;6.10;99.90;;;;;;10050319;29;20241;-90
2023/01/11 11:00:35;;;;;;;7.17;4.73;;;6.40;99.90;;;;;;9997035;29;20262;-90
2023/01/11 11:05:49;;;;;;;7.63;3.90;;;6.60;99.90;;;;;;10013383;29;20285;-90
2023/01/11 11:10:55;;;;;;;9.17;6.37;;;6.80;99.90;;;;;;10042773;29;20240;-90
2023/01/11 11:16:19;;;;;;;8.03;4.33;;;6.90;99.90;;;;;;10050781;29;20751;-90
2023/01/11 11:21:42;;;;;;;6.60;4.60;;;7.20;99.90;;;;;;10048491;29;20280;-90
2023/01/11 11:26:55;;;;;;;7.43;4.40;;;7.30;99.90;;;;;;10051377;29;20264;-90
2023/01/11 11:31:59;;;;;;;11.77;4.70;;;7.40;99.90;;;;;;10052785;29;20247;-90
2023/01/11 11:37:02;;;;;;;7.57;4.87;;;7.50;99.90;;;;;;10031623;29;20315;-91
2023/01/11 11:42:07;;;;;;;7.57;5.20;;;7.50;99.90;;;;;;10047640;29;20247;-90
2023/01/11 11:47:15;;;;;;;7.67;4.97;;;7.50;99.90;;;;;;10041621;29;20285;-91
2023/01/11 11:52:18;;;;;;;9.40;4.37;;;7.50;99.90;;;;;;10041320;29;20280;-90
2023/01/11 11:57:24;;;;;;;10.50;5.10;;;7.50;99.90;;;;;;10036380;29;20241;-90
2023/01/11 12:02:32;;;;;;;8.37;4.47;;;7.50;99.90;;;;;;10057541;29;20415;-90
2023/01/11 12:07:41;;;;;;;10.03;5.03;;;7.60;99.90;;;;;;10052024;29;20264;-90
2023/01/11 12:12:58;;;;;;;11.17;4.93;;;7.50;99.90;;;;;;10057617;29;20296;-90
2023/01/11 12:18:26;;;;;;;10.23;4.80;;;7.50;99.90;;;;;;10057314;29;20241;-90
2023/01/11 12:23:29;;;;;;;6.40;4.07;;;7.50;99.90;;;;;;10040554;29;20240;-89
2023/01/11 12:28:53;;;;;;;8.70;5.10;;;7.50;99.90;;;;;;10055717;29;20264;-89
2023/01/11 12:34:16;;;;;;;8.67;4.73;;;7.80;99.90;;;;;;10037391;29;20257;-89
2023/01/11 12:39:46;;;;;;;7.23;4.53;;;7.80;99.90;;;;;;10052081;29;20247;-89
2023/01/11 12:45:07;;;;;;;7.60;4.57;;;7.80;99.90;;;;;;10055306;29;20261;-89
2023/01/11 12:50:32;;;;;;;8.97;5.43;;;7.80;99.90;;;;;;10039146;29;20293;-89
2023/01/11 12:55:50;;;;;;;10.70;4.50;;;7.60;99.90;;;;;;10051970;29;20237;-89
2023/01/11 13:01:04;;;;;;;12.43;5.80;;;7.50;99.90;;;;;;10071836;29;20308;-89
2023/01/11 13:06:21;;;;;;;8.20;4.97;;;7.50;99.90;;;;;;10052685;29;20342;-89
2023/01/11 13:11:51;;;;;;;13.30;5.67;;;7.60;99.90;;;;;;10060409;29;20687;-88
2023/01/11 13:17:04;;;;;;;6.67;4.77;;;7.50;99.90;;;;;;10055402;29;20309;-89
2023/01/11 13:22:15;;;;;;;10.00;5.73;;;7.50;99.90;;;;;;10035342;29;20298;-90
2023/01/11 13:27:23;;;;;;;8.47;4.60;;;7.40;99.90;;;;;;10037025;29;20320;-89
2023/01/11 13:32:37;;;;;;;7.87;4.60;;;7.50;99.90;;;;;;10054233;29;20245;-91
2023/01/11 13:38:06;;;;;;;12.07;4.30;;;7.50;99.90;;;;;;10052603;29;20296;-91
2023/01/11 13:43:21;;;;;;;8.60;4.63;;;7.50;99.90;;;;;;9936050;29;20362;-91
2023/01/11 13:49:01;;;;;;;7.50;4.57;;;7.60;99.90;;;;;;9965390;29;20299;-90
2023/01/11 13:54:21;;;;;;;7.60;4.40;;;7.40;99.90;;;;;;9947022;29;20243;-90
2023/01/11 13:59:35;;;;;;;6.60;5.10;;;7.60;99.90;;;;;;9970905;29;20264;-90
2023/01/11 14:04:52;;;;;;;6.73;4.27;;;8.40;99.90;;;;;;9972338;29;20335;-91
2023/01/11 14:10:07;;;;;;;10.77;5.77;;;8.20;99.90;;;;;;9972274;29;20318;-90
2023/01/11 14:15:21;;;;;;;13.40;5.50;;;8.00;99.90;;;;;;9972093;29;20287;-90
2023/01/11 14:20:42;;;;;;;12.90;6.27;;;7.70;99.90;;;;;;10027548;29;20309;-90
2023/01/11 14:26:24;;;;;;;10.80;5.07;;;7.50;99.90;;;;;;10037926;29;20316;-87
2023/01/11 14:31:47;;;;;;;10.60;6.03;;;7.70;99.90;;;;;;10036258;29;20306;-88
2023/01/11 14:37:11;;;;;;;11.50;4.97;;;8.20;99.90;;;;;;10038144;29;20690;-89
2023/01/11 14:48:15;;;;;;;9.23;6.07;;;8.10;99.90;;;;;;9949251;23;10002010;-89
2023/01/11 14:53:22;;;;;;;12.07;5.53;;;8.70;99.90;;;;;;10139727;29;20235;-89
2023/01/11 14:58:25;;;;;;;16.77;7.67;;;9.00;99.90;;;;;;10149125;29;20236;-90
2023/01/11 15:03:39;;;;;;;13.33;8.20;;;8.90;99.90;;;;;;10144802;29;20298;-89
2023/01/11 15:08:45;;;;;;;10.57;5.37;;;7.10;99.90;;;;;;10105355;29;20745;-89
2023/01/11 15:14:00;;;;;;;12.10;5.77;;;7.20;99.90;;;;;;10143962;29;20267;-89
2023/01/11 15:19:22;;;;;;;9.77;6.30;;;7.60;99.90;;;;;;10125178;29;20260;-89
2023/01/11 15:24:31;;;;;;;15.63;6.97;;;7.70;99.90;;;;;;10075383;29;20246;-88
2023/01/11 15:29:40;;;;;;;5.57;4.13;;;7.50;99.90;;;;;;10072936;29;20294;-90
2023/01/11 15:34:46;;;;;;;13.33;5.73;;;7.60;99.90;;;;;;10097316;29;20262;-88
2023/01/11 15:39:51;;;;;;;8.83;4.50;;;7.70;99.90;;;;;;10105724;29;20302;-88
2023/01/11 15:45:07;;;;;;;10.90;5.93;;;8.90;99.90;;;;;;10113864;29;20330;-87
2023/01/11 15:50:40;;;;;;;9.20;4.53;;;9.10;99.90;;;;;;10098669;29;20236;-88
2023/01/11 15:55:57;;;;;;;9.17;4.80;;;9.30;99.90;;;;;;10142997;29;20245;-88
2023/01/11 16:01:21;;;;;;;10.23;5.57;;;9.90;99.90;;;;;;10129392;29;20659;-87
2023/01/11 16:06:46;;;;;;;6.97;5.07;;;10.30;99.90;;;;;;10106105;29;20263;-88
2023/01/11 16:12:13;;;;;;;13.00;5.90;;;10.50;99.90;;;;;;10097622;29;20273;-88
2023/01/11 16:17:20;;;;;;;10.47;5.00;;;10.50;99.90;;;;;;10089581;29;20248;-88
2023/01/11 16:22:26;;;;;;;9.63;5.97;;;10.60;99.90;;;;;;10089331;29;20240;-88
2023/01/11 16:27:33;;;;;;;7.40;4.97;;;10.70;99.90;;;;;;10084254;29;20259;-88
2023/01/11 16:32:36;;;;;;;13.63;7.13;;;10.20;99.90;;;;;;10124795;29;20299;-88
2023/01/11 16:37:43;;;;;;;11.37;6.37;;;10.20;99.90;;;;;;10133974;29;20236;-88
2023/01/11 16:42:49;;;;;;;9.17;5.27;;;10.20;99.90;;;;;;10125790;29;20304;-88
2023/01/11 16:48:17;;;;;;;10.60;5.30;;;10.20;99.90;;;;;;10107664;29;20260;-88
2023/01/11 16:53:20;;;;;;;13.43;7.47;;;10.20;99.90;;;;;;10106841;29;20228;-89
2023/01/11 16:58:31;;;;;;;12.00;7.37;;;10.30;99.90;;;;;;10118580;29;20316;-88
2023/01/11 17:03:35;;;;;;;16.27;9.17;;;10.10;99.90;;;;;;10105322;29;20264;-88
2023/01/11 17:08:41;;;;;;;13.67;7.80;;;10.00;99.90;;;;;;10122481;29;20252;-88
2023/01/11 17:14:18;;;;;;;13.70;8.67;;;10.00;99.90;;;;;;10106981;29;20684;-88
2023/01/11 17:19:24;;;;;;;18.27;10.43;;;9.50;99.90;;;;;;10113029;29;20643;-88
2023/01/11 17:24:27;;;;;;;17.33;9.73;;;9.10;99.90;;;;;;10102386;29;20292;-88
2023/01/11 17:29:36;;;;;;;19.33;12.33;;;8.80;99.90;;;;;;10090860;29;20256;-89
2023/01/11 17:34:39;;;;;;;21.37;11.80;;;8.60;99.90;;;;;;10123615;29;20238;-89
2023/01/11 17:39:54;;;;;;;15.07;7.73;;;8.50;99.90;;;;;;10112964;29;20235;-88
2023/01/11 17:45:12;;;;;;;10.87;6.57;;;8.60;99.90;;;;;;10153414;29;21059;-88
2023/01/11 17:50:35;;;;;;;18.40;10.70;;;8.30;99.90;;;;;;10144946;29;20306;-89
2023/01/11 17:55:51;;;;;;;10.90;7.03;;;8.30;99.90;;;;;;10149412;29;20255;-88
2023/01/11 18:01:08;;;;;;;10.53;5.80;;;8.20;99.90;;;;;;10147278;29;20371;-89
2023/01/11 18:06:34;;;;;;;9.57;6.67;;;8.10;99.90;;;;;;10142782;29;20247;-89
2023/01/11 18:11:40;;;;;;;18.80;9.47;;;8.10;99.90;;;;;;10130427;29;20299;-88
2023/01/11 18:17:41;;;;;;;21.93;11.83;;;8.10;99.90;;;;;;10163660;29;20756;-88
2023/01/11 18:23:18;;;;;;;16.43;10.20;;;7.90;99.90;;;;;;9974985;29;20366;-87
2023/01/11 18:28:27;;;;;;;17.50;8.90;;;7.80;99.90;;;;;;9967555;29;20258;-88
2023/01/11 18:33:33;;;;;;;19.10;9.70;;;7.70;99.90;;;;;;9970514;29;20243;-88
2023/01/11 18:38:35;;;;;;;13.03;9.00;;;7.70;99.90;;;;;;9942019;29;20278;-89
2023/01/11 18:43:38;;;;;;;11.13;8.20;;;7.80;99.90;;;;;;9935012;29;20273;-88
2023/01/11 18:48:41;;;;;;;10.30;7.47;;;7.60;99.90;;;;;;9946786;29;20767;-88
2023/01/11 18:53:43;;;;;;;17.87;10.90;;;7.70;99.90;;;;;;9999719;29;20303;-88
2023/01/11 18:58:46;;;;;;;17.93;11.23;;;7.70;99.90;;;;;;10111959;29;20276;-88
2023/01/11 19:03:49;;;;;;;16.33;11.33;;;7.70;99.90;;;;;;10083609;29;20243;-88
2023/01/11 19:08:52;;;;;;;16.83;11.77;;;8.00;99.90;;;;;;10131942;29;20268;-88
2023/01/11 19:13:54;;;;;;;18.70;11.30;;;8.00;99.90;;;;;;10123747;29;20636;-89
2023/01/11 19:18:57;;;;;;;16.43;7.70;;;8.00;99.90;;;;;;10136469;29;20318;-88
2023/01/11 19:24:00;;;;;;;13.10;9.13;;;8.30;99.90;;;;;;10149660;29;20247;-86
2023/01/11 19:29:03;;;;;;;15.10;10.30;;;8.80;99.90;;;;;;10127343;29;20342;-86
2023/01/11 19:34:05;;;;;;;12.23;9.03;;;9.20;99.90;;;;;;10124572;29;20236;-88
2023/01/11 19:39:08;;;;;;;14.70;9.70;;;8.80;99.90;;;;;;9777137;29;9999979;-86
2023/01/11 19:44:10;;;;;;;9.40;6.63;;;8.40;99.90;;;;;;10089012;29;20750;-86
2023/01/11 19:49:13;;;;;;;9.43;6.53;;;9.40;99.90;;;;;;10113967;29;20335;-88
2023/01/11 19:54:19;;;;;;;11.13;8.73;;;9.80;99.90;;;;;;10126394;29;20264;-87
2023/01/11 19:59:22;;;;;;;10.63;7.10;;;10.10;99.90;;;;;;9744307;29;10000082;-87
2023/01/11 20:04:25;;;;;;;7.90;4.87;;;10.80;99.90;;;;;;10117336;29;20300;-87
2023/01/11 20:09:28;;;;;;;11.87;9.73;;;11.00;99.90;;;;;;10077503;29;20268;-87
2023/01/11 20:14:31;;;;;;;9.50;7.60;;;11.10;99.90;;;;;;10108865;29;20769;-88
2023/01/11 20:19:33;;;;;;;12.13;8.00;;;10.90;99.90;;;;;;10128449;29;20247;-88
2023/01/11 20:24:35;;;;;;;9.97;7.90;;;11.20;99.90;;;;;;10133214;29;20288;-87
2023/01/11 20:29:38;;;;;;;11.30;8.67;;;11.30;99.90;;;;;;10094884;29;20272;-87
2023/01/11 20:34:41;;;;;;;12.07;8.63;;;11.00;99.90;;;;;;10076678;29;20300;-87
2023/01/11 20:39:43;;;;;;;5.60;4.70;;;11.30;99.90;;;;;;10130040;29;20231;-87
2023/01/11 20:44:46;;;;;;;11.07;8.53;;;11.60;99.90;;;;;;10119305;29;20323;-87
2023/01/11 20:49:49;;;;;;;5.83;4.63;;;11.80;99.90;;;;;;10105526;29;20315;-87
2023/01/11 20:54:51;;;;;;;8.53;6.60;;;11.90;99.90;;;;;;10077848;29;20311;-86
2023/01/11 20:59:55;;;;;;;10.97;7.80;;;12.20;99.90;;;;;;10087751;29;20331;-87
2023/01/11 21:04:57;;;;;;;11.73;7.57;;;12.50;99.90;;;;;;10117719;29;20284;-86
2023/01/11 21:10:00;;;;;;;4.40;3.90;;;12.20;99.90;;;;;;10162512;29;20363;-85
2023/01/11 21:15:03;;;;;;;8.37;6.27;;;13.10;99.90;;;;;;10141502;29;20236;-85
2023/01/11 21:20:07;;;;;;;7.10;6.07;;;13.00;99.90;;;;;;10126580;29;20257;-85
2023/01/11 21:25:09;;;;;;;8.73;6.73;;;12.70;99.90;;;;;;10088770;29;20245;-86
2023/01/11 21:30:12;;;;;;;8.70;7.23;;;13.00;99.90;;;;;;10120939;29;20248;-86
2023/01/11 21:35:15;;;;;;;7.43;5.83;;;12.50;99.90;;;;;;10085301;29;20239;-86
2023/01/11 21:40:17;;;;;;;6.73;5.80;;;12.90;99.90;;;;;;10106247;29;20299;-86
2023/01/11 21:45:20;;;;;;;6.97;5.57;;;12.70;99.90;;;;;;10100613;29;20268;-86
2023/01/11 21:50:22;;;;;;;9.57;7.40;;;13.20;99.90;;;;;;10084136;29;20252;-86
2023/01/11 21:55:25;;;;;;;6.47;5.40;;;12.90;99.90;;;;;;10094987;29;20305;-86
2023/01/11 22:00:29;;;;;;;7.47;5.90;;;13.00;99.90;;;;;;10102413;29;20344;-86
2023/01/11 22:05:32;;;;;;;8.50;4.73;;;12.80;99.90;;;;;;10111336;29;20315;-86
2023/01/11 22:10:35;;;;;;;8.20;6.40;;;13.10;99.90;;;;;;10109741;29;20263;-86
2023/01/11 22:15:37;;;;;;;8.80;6.33;;;12.80;99.90;;;;;;10104149;29;20233;-86
2023/01/11 22:20:40;;;;;;;8.23;6.63;;;13.30;99.90;;;;;;10100974;29;20296;-86
2023/01/11 22:25:42;;;;;;;4.90;4.40;;;13.60;99.90;;;;;;10136873;29;20272;-86
2023/01/11 22:30:45;;;;;;;6.33;5.30;;;13.20;99.90;;;;;;10118451;29;20259;-86
2023/01/11 22:35:56;;;;;;;12.27;9.07;;;13.20;99.90;;;;;;10119241;29;20307;-86
2023/01/11 22:40:59;;;;;;;10.93;8.00;;;12.90;99.90;;;;;;10088706;29;20232;-87
2023/01/11 22:46:02;;;;;;;9.93;7.37;;;12.20;99.90;;;;;;10097383;29;20332;-87
2023/01/11 22:51:06;;;;;;;7.60;6.27;;;11.90;99.90;;;;;;10103441;29;20255;-87
2023/01/11 22:56:10;;;;;;;7.70;6.10;;;12.20;99.90;;;;;;10123533;29;20244;-87
2023/01/11 23:01:15;;;;;;;10.67;5.73;;;12.60;99.90;;;;;;10112834;29;20291;-88
2023/01/11 23:06:20;;;;;;;8.33;6.63;;;12.80;99.90;;;;;;10093917;29;20276;-88
2023/01/11 23:16:49;;;;;;;8.90;6.50;;;12.60;99.90;;;;;;10112896;29;20239;-87
2023/01/11 23:21:52;;;;;;;11.10;7.47;;;12.70;99.90;;;;;;10094050;29;20248;-86
2023/01/11 23:26:54;;;;;;;7.30;6.30;;;12.80;99.90;;;;;;10103710;29;20309;-87
2023/01/11 23:31:57;;;;;;;8.70;6.80;;;13.30;99.90;;;;;;10127215;29;20275;-89
2023/01/11 23:37:00;;;;;;;5.60;4.00;;;13.10;99.90;;;;;;10095386;29;20236;-89
2023/01/11 23:47:28;;;;;;;9.33;5.83;;;12.70;99.90;;;;;;10080163;29;20268;-91
2023/01/11 23:52:31;;;;;;;7.83;6.97;;;12.80;99.90;;;;;;10081663;29;20236;-88
2023/01/11 23:57:33;;;;;;;7.53;5.27;;;13.00;99.90;;;;;;10101175;29;20229;-89
